createdAt,value
2023-04-14T00:01:37.844Z,9.52
2023-04-14T00:04:04.701Z,7.65
2023-04-14T00:06:31.479Z,9.90
2023-04-14T00:08:58.190Z,10.35
2023-04-14T00:11:25.271Z,13.32
2023-04-14T00:13:51.924Z,8.75
2023-04-14T00:16:18.715Z,9.07
2023-04-14T00:18:45.215Z,8.90
2023-04-14T00:21:13.416Z,5.65
2023-04-14T00:23:39.895Z,12.77
2023-04-14T00:26:06.535Z,10.27
2023-04-14T00:28:33.245Z,8.80
2023-04-14T00:31:01.852Z,9.20
2023-04-14T00:33:28.483Z,11.65
2023-04-14T00:35:55.024Z,11.10
2023-04-14T00:38:21.781Z,13.05
2023-04-14T00:40:48.348Z,11.40
2023-04-14T00:43:18.069Z,12.93
2023-04-14T00:45:45.566Z,10.80
2023-04-14T00:48:13.637Z,7.30
2023-04-14T00:50:40.346Z,7.75
2023-04-14T00:53:06.976Z,9.88
2023-04-14T00:55:33.661Z,6.28
2023-04-14T00:58:01.319Z,7.15
2023-04-14T01:00:28.196Z,11.13
2023-04-14T01:02:55.348Z,8.85
2023-04-14T01:05:22.293Z,7.65
2023-04-14T01:07:49.384Z,6.65
2023-04-14T01:10:16.521Z,6.15
2023-04-14T01:13:09.197Z,7.65
2023-04-14T01:15:40.731Z,8.93
2023-04-14T01:18:11.226Z,9.07
2023-04-14T01:20:40.966Z,8.15
2023-04-14T01:23:08.713Z,7.40
2023-04-14T01:25:53.933Z,8.63
2023-04-14T01:28:23.557Z,7.28
2023-04-14T01:31:09.102Z,8.02
2023-04-14T01:33:40.556Z,9.15
2023-04-14T01:36:10.025Z,8.45
2023-04-14T01:38:37.700Z,8.07
2023-04-14T01:41:08.804Z,10.30
2023-04-14T01:43:37.685Z,8.80
2023-04-14T01:46:07.142Z,6.10
2023-04-14T01:48:34.125Z,12.30
2023-04-14T01:51:02.311Z,5.30
2023-04-14T01:53:31.149Z,9.73
2023-04-14T01:56:00.960Z,7.13
2023-04-14T01:58:29.719Z,9.43
2023-04-14T02:00:57.601Z,5.50
2023-04-14T02:03:25.670Z,7.70
2023-04-14T02:05:53.675Z,7.22
2023-04-14T02:08:21.111Z,5.63
2023-04-14T02:10:48.746Z,8.85
2023-04-14T02:13:16.925Z,5.95
2023-04-14T02:15:43.903Z,7.63
2023-04-14T02:18:10.716Z,5.35
2023-04-14T02:20:43.470Z,8.57
2023-04-14T02:23:11.523Z,5.50
2023-04-14T02:25:41.313Z,9.30
2023-04-14T02:28:12.200Z,6.38
2023-04-14T02:30:39.675Z,6.22
2023-04-14T02:33:08.109Z,6.18
2023-04-14T02:35:44.660Z,7.43
2023-04-14T02:38:18.484Z,12.98
2023-04-14T02:40:46.549Z,6.93
2023-04-14T02:43:32.172Z,8.93
2023-04-14T02:46:02.919Z,4.90
2023-04-14T02:48:33.798Z,6.50
2023-04-14T02:51:03.217Z,6.50
2023-04-14T02:53:30.805Z,7.55
2023-04-14T02:56:06.941Z,5.82
2023-04-14T02:58:37.028Z,7.28
2023-04-14T03:01:04.143Z,8.40
2023-04-14T03:03:33.444Z,5.35
2023-04-14T03:06:00.200Z,4.15
2023-04-14T03:08:27.123Z,6.60
2023-04-14T03:10:54.594Z,7.43
2023-04-14T03:13:25.942Z,8.50
2023-04-14T03:15:52.909Z,9.02
2023-04-14T03:18:21.194Z,5.78
2023-04-14T03:20:50.231Z,5.78
2023-04-14T03:23:19.033Z,4.95
2023-04-14T03:25:52.091Z,5.53
2023-04-14T03:28:24.862Z,6.90
2023-04-14T03:30:52.896Z,5.68
2023-04-14T03:33:23.331Z,5.05
2023-04-14T03:35:52.411Z,5.38
2023-04-14T03:38:20.424Z,8.90
2023-04-14T03:40:47.917Z,7.50
2023-04-14T03:43:22.551Z,8.18
2023-04-14T03:45:56.946Z,5.25
2023-04-14T03:48:26.417Z,5.13
2023-04-14T03:50:54.791Z,3.38
2023-04-14T03:53:21.961Z,4.25
2023-04-14T03:55:51.629Z,10.48
2023-04-14T03:58:18.638Z,5.85
2023-04-14T04:00:48.591Z,6.43
2023-04-14T04:03:15.757Z,9.32
2023-04-14T04:05:43.089Z,5.03
2023-04-14T04:08:10.492Z,4.45
2023-04-14T04:10:37.836Z,6.18
2023-04-14T04:13:10.371Z,7.63
2023-04-14T04:15:38.262Z,3.67
2023-04-14T04:18:06.399Z,2.83
2023-04-14T04:20:34.720Z,4.25
2023-04-14T04:23:01.748Z,5.88
2023-04-14T04:25:28.731Z,5.13
2023-04-14T04:28:05.736Z,4.22
2023-04-14T04:30:33.364Z,4.68
2023-04-14T04:33:04.871Z,5.38
2023-04-14T04:35:32.661Z,5.57
2023-04-14T04:38:01.029Z,4.95
2023-04-14T04:40:28.730Z,5.40
2023-04-14T04:42:55.980Z,6.25
2023-04-14T04:45:36.543Z,6.97
2023-04-14T04:48:04.535Z,4.50
2023-04-14T04:50:31.206Z,5.55
2023-04-14T04:52:57.806Z,5.25
2023-04-14T04:55:24.382Z,7.25
2023-04-14T04:57:50.936Z,4.57
2023-04-14T05:00:17.790Z,6.53
2023-04-14T05:02:44.631Z,7.78
2023-04-14T05:05:11.324Z,5.13
2023-04-14T05:07:37.957Z,5.18
2023-04-14T05:10:04.689Z,6.13
2023-04-14T05:12:31.305Z,5.70
2023-04-14T05:14:57.751Z,3.78
2023-04-14T05:17:24.526Z,7.35
2023-04-14T05:19:51.505Z,6.50
2023-04-14T05:22:18.119Z,7.07
2023-04-14T05:24:50.853Z,4.63
2023-04-14T05:27:17.422Z,6.40
2023-04-14T05:29:43.851Z,4.80
2023-04-14T05:32:11.355Z,8.00
2023-04-14T05:34:37.813Z,6.82
2023-04-14T05:37:04.312Z,4.25
2023-04-14T05:39:30.781Z,5.28
2023-04-14T05:41:57.658Z,9.85
2023-04-14T05:44:24.308Z,6.75
2023-04-14T05:46:51.217Z,6.13
2023-04-14T05:49:17.866Z,4.78
2023-04-14T05:51:44.355Z,8.50
2023-04-14T05:54:10.912Z,5.10
2023-04-14T05:56:37.445Z,8.82
2023-04-14T05:59:03.941Z,6.68
2023-04-14T06:01:30.582Z,7.15
2023-04-14T06:03:57.187Z,8.90
2023-04-14T06:06:23.990Z,6.85
2023-04-14T06:08:50.660Z,6.22
2023-04-14T06:11:17.209Z,11.38
2023-04-14T06:13:43.871Z,19.02
2023-04-14T06:16:10.475Z,18.88
2023-04-14T06:18:37.003Z,27.73
2023-04-14T06:21:03.725Z,22.50
2023-04-14T06:23:31.420Z,19.30
2023-04-14T06:25:58.028Z,23.65
2023-04-14T06:28:26.261Z,25.98
2023-04-14T06:31:06.810Z,26.17
2023-04-14T06:33:36.124Z,28.75
2023-04-14T06:36:03.123Z,29.45
2023-04-14T06:38:30.102Z,29.60
2023-04-14T06:41:02.010Z,30.67
2023-04-14T06:43:31.095Z,40.42
2023-04-14T06:45:57.740Z,34.30
2023-04-14T06:48:24.390Z,38.15
2023-04-14T06:50:56.222Z,40.38
2023-04-14T06:55:59.709Z,43.33
2023-04-14T06:58:27.526Z,44.80
2023-04-14T07:01:01.663Z,44.95
2023-04-14T07:03:30.498Z,45.40
2023-04-14T07:06:24.435Z,36.17
2023-04-14T07:08:51.128Z,35.85
2023-04-14T07:11:25.368Z,45.53
2023-04-14T07:13:52.418Z,59.78
2023-04-14T07:16:19.360Z,63.75
2023-04-14T07:18:51.531Z,67.80
2023-04-14T07:21:20.863Z,74.55
2023-04-14T07:23:47.513Z,65.65
2023-04-14T07:26:14.241Z,58.53
2023-04-14T07:28:41.620Z,52.38
2023-04-14T07:31:12.697Z,48.42
2023-04-14T07:33:39.852Z,51.70
2023-04-14T07:36:07.270Z,43.97
2023-04-14T07:38:34.135Z,40.13
2023-04-14T07:41:06.213Z,54.35
2023-04-14T07:43:35.767Z,51.15
2023-04-14T07:46:05.273Z,55.63
2023-04-14T07:48:32.651Z,58.83
2023-04-14T07:50:59.428Z,65.07
2023-04-14T07:53:26.407Z,65.63
2023-04-14T07:55:53.097Z,69.45
2023-04-14T07:58:19.637Z,75.32
2023-04-14T08:00:46.488Z,64.75
2023-04-14T08:03:33.099Z,60.72
2023-04-14T08:06:17.622Z,51.08
2023-04-14T08:09:17.199Z,43.47
2023-04-14T08:11:36.329Z,56.60
2023-04-14T08:14:07.757Z,58.30
2023-04-14T08:16:36.938Z,42.08
2023-04-14T08:19:04.290Z,26.35
2023-04-14T08:21:31.672Z,21.85
2023-04-14T08:26:49.665Z,14.13
2023-04-14T08:29:16.772Z,8.52
2023-04-14T08:31:59.352Z,5.80
2023-04-14T08:34:28.872Z,7.22
2023-04-14T08:37:03.598Z,7.05
2023-04-14T08:39:37.939Z,5.38
2023-04-14T08:42:11.063Z,7.53
2023-04-14T08:44:42.443Z,5.43
2023-04-14T08:47:25.245Z,6.45
2023-04-14T08:50:07.451Z,10.73
2023-04-14T08:52:38.492Z,5.60
2023-04-14T08:55:05.321Z,7.65
2023-04-14T08:57:31.880Z,7.35
2023-04-14T08:59:58.786Z,7.68
2023-04-14T09:02:32.737Z,7.65
2023-04-14T09:05:04.953Z,9.18
2023-04-14T09:07:33.619Z,8.02
2023-04-14T09:10:03.100Z,7.22
2023-04-14T09:12:30.993Z,7.32
2023-04-14T09:14:58.794Z,12.65
2023-04-14T09:17:29.501Z,20.50
2023-04-14T09:20:38.419Z,60.47
2023-04-14T09:22:55.613Z,40.00
2023-04-14T09:25:25.457Z,24.13
2023-04-14T09:27:52.176Z,29.83
2023-04-14T09:30:22.938Z,23.10
2023-04-14T09:32:59.420Z,60.92
2023-04-14T09:35:46.808Z,48.20
2023-04-14T09:38:13.549Z,19.48
2023-04-14T09:40:42.512Z,46.03
2023-04-14T09:43:12.698Z,40.40
2023-04-14T09:45:45.682Z,27.67
2023-04-14T09:48:44.176Z,33.03
2023-04-14T09:52:01.787Z,33.97
2023-04-14T09:54:28.455Z,24.42
2023-04-14T09:56:54.975Z,16.67
2023-04-14T10:00:25.866Z,18.30
2023-04-14T10:02:57.812Z,20.20
2023-04-14T10:05:27.796Z,18.85
2023-04-14T10:07:54.619Z,11.90
2023-04-14T10:10:21.320Z,19.23
2023-04-14T10:12:47.962Z,17.85
2023-04-14T10:15:15.547Z,23.40
2023-04-14T10:17:42.744Z,34.05
2023-04-14T10:20:10.348Z,18.48
2023-04-14T10:22:39.104Z,17.25
2023-04-14T10:25:08.120Z,15.32
2023-04-14T10:27:35.504Z,11.68
2023-04-14T10:30:02.352Z,11.27
2023-04-14T10:32:31.351Z,10.63
2023-04-14T10:34:58.760Z,11.85
2023-04-14T10:37:25.716Z,13.68
2023-04-14T10:39:59.587Z,13.25
2023-04-14T10:42:26.612Z,13.97
2023-04-14T10:45:04.892Z,13.75
2023-04-14T10:47:31.979Z,13.55
2023-04-14T10:50:04.270Z,12.40
2023-04-14T10:52:31.537Z,11.68
2023-04-14T10:55:01.327Z,8.52
2023-04-14T10:57:28.590Z,6.88
2023-04-14T10:59:59.062Z,4.10
2023-04-14T11:02:26.116Z,5.43
2023-04-14T11:04:58.836Z,5.35
2023-04-14T11:07:25.481Z,4.28
2023-04-14T11:09:52.157Z,4.82
2023-04-14T11:12:21.718Z,4.43
2023-04-14T11:14:48.217Z,2.78
2023-04-14T11:17:24.391Z,3.33
2023-04-14T11:19:56.391Z,3.22
2023-04-14T11:22:39.201Z,8.82
2023-04-14T11:25:08.134Z,4.78
2023-04-14T11:27:35.834Z,4.88
2023-04-14T11:30:02.465Z,3.22
2023-04-14T11:32:29.094Z,4.78
2023-04-14T11:34:55.866Z,4.07
2023-04-14T11:37:22.987Z,4.60
2023-04-14T11:39:49.763Z,3.60
2023-04-14T11:42:16.242Z,4.65
2023-04-14T11:44:43.047Z,5.18
2023-04-14T11:47:09.689Z,4.93
2023-04-14T11:49:36.615Z,5.68
2023-04-14T11:52:09.292Z,4.70
2023-04-14T11:54:37.176Z,2.72
2023-04-14T11:57:08.627Z,3.65
2023-04-14T11:59:45.268Z,3.50
2023-04-14T12:02:15.579Z,3.30
2023-04-14T12:04:42.795Z,3.72
2023-04-14T12:07:10.980Z,4.50
2023-04-14T12:09:40.175Z,2.95
2023-04-14T12:12:13.848Z,2.75
2023-04-14T12:14:50.471Z,3.30
2023-04-14T12:17:17.875Z,3.90
2023-04-14T12:19:47.214Z,3.55
2023-04-14T12:22:13.831Z,2.60
2023-04-14T12:24:40.990Z,5.93
2023-04-14T12:27:09.321Z,3.63
2023-04-14T12:29:39.059Z,6.43
2023-04-14T12:32:12.149Z,4.32
2023-04-14T12:34:39.004Z,2.75
2023-04-14T12:37:09.792Z,3.72
2023-04-14T12:39:58.511Z,3.40
2023-04-14T12:42:25.997Z,4.30
2023-04-14T12:45:00.543Z,6.03
2023-04-14T12:49:54.508Z,4.38
2023-04-14T12:52:34.782Z,5.63
2023-04-14T12:55:03.029Z,3.63
2023-04-14T12:57:29.650Z,3.17
2023-04-14T12:59:56.398Z,1.48
2023-04-14T13:02:23.509Z,2.78
2023-04-14T13:04:50.449Z,2.38
2023-04-14T13:07:17.160Z,3.28
2023-04-14T13:09:43.847Z,2.67
2023-04-14T13:12:10.520Z,2.35
2023-04-14T13:14:37.184Z,3.92
2023-04-14T13:17:13.503Z,2.05
2023-04-14T13:19:40.383Z,4.40
2023-04-14T13:22:07.114Z,2.80
2023-04-14T13:25:15.281Z,2.38
2023-04-14T13:27:41.766Z,5.15
2023-04-14T13:30:08.662Z,5.47
2023-04-14T13:32:35.294Z,10.57
2023-04-14T13:35:01.955Z,2.92
2023-04-14T13:37:28.673Z,4.40
2023-04-14T13:39:55.437Z,3.03
2023-04-14T13:42:22.014Z,5.15
2023-04-14T13:44:48.601Z,3.83
2023-04-14T13:47:15.259Z,3.17
2023-04-14T13:49:42.374Z,3.35
2023-04-14T13:52:08.938Z,4.00
2023-04-14T13:54:35.565Z,3.00
2023-04-14T13:57:02.231Z,3.72
2023-04-14T13:59:28.856Z,3.53
2023-04-14T14:01:55.644Z,3.88
2023-04-14T14:04:22.469Z,2.70
2023-04-14T14:06:49.216Z,1.40
2023-04-14T14:09:15.738Z,4.13
2023-04-14T14:11:44.380Z,3.00
2023-04-14T14:14:12.901Z,1.40
2023-04-14T14:16:39.450Z,4.78
2023-04-14T14:19:16.954Z,2.85
2023-04-14T14:21:44.144Z,2.65
2023-04-14T14:24:11.128Z,2.88
2023-04-14T14:26:37.745Z,2.60
2023-04-14T14:29:04.375Z,2.20
2023-04-14T14:31:31.470Z,2.53
2023-04-14T14:33:57.977Z,2.58
2023-04-14T14:36:24.614Z,2.15
2023-04-14T14:38:51.398Z,1.67
2023-04-14T14:41:17.937Z,1.92
2023-04-14T14:43:44.540Z,3.65
2023-04-14T14:46:11.323Z,1.90
2023-04-14T14:48:37.848Z,2.58
2023-04-14T14:51:04.699Z,2.72
2023-04-14T14:53:32.374Z,2.78
2023-04-14T14:55:58.962Z,2.53
2023-04-14T14:58:25.665Z,3.00
2023-04-14T15:00:52.991Z,2.78
2023-04-14T15:03:20.760Z,3.00
2023-04-14T15:05:49.859Z,2.38
2023-04-14T15:08:17.047Z,3.42
2023-04-14T15:10:43.657Z,2.58
2023-04-14T15:13:10.346Z,3.67
2023-04-14T15:15:36.916Z,3.85
2023-04-14T15:18:03.714Z,4.28
2023-04-14T15:20:30.431Z,2.95
2023-04-14T15:22:56.967Z,3.80
2023-04-14T15:25:23.736Z,1.67
2023-04-14T15:27:51.142Z,3.70
2023-04-14T15:30:17.906Z,3.63
2023-04-14T15:32:44.528Z,2.60
2023-04-14T15:35:11.304Z,3.30
2023-04-14T15:37:37.796Z,4.00
2023-04-14T15:40:04.470Z,2.55
2023-04-14T15:42:31.084Z,1.40
2023-04-14T15:44:59.576Z,2.45
2023-04-14T15:47:26.294Z,3.92
2023-04-14T15:50:08.883Z,1.67
2023-04-14T15:52:37.487Z,1.80
2023-04-14T15:55:07.224Z,3.25
2023-04-14T15:57:33.812Z,2.03
2023-04-14T16:00:02.281Z,1.70
2023-04-14T16:02:39.180Z,2.05
2023-04-14T16:05:08.908Z,3.55
2023-04-14T16:07:35.495Z,3.45
2023-04-14T16:10:11.139Z,4.97
2023-04-14T16:12:37.770Z,2.10
2023-04-14T16:15:07.051Z,3.53
2023-04-14T16:17:33.935Z,5.32
2023-04-14T16:20:01.767Z,2.63
2023-04-14T16:22:29.651Z,1.45
2023-04-14T16:24:56.540Z,2.60
2023-04-14T16:27:23.095Z,2.38
2023-04-14T16:29:49.549Z,3.42
2023-04-14T16:32:17.475Z,4.18
2023-04-14T16:34:43.999Z,5.05
2023-04-14T16:37:11.031Z,3.42
2023-04-14T16:39:37.579Z,2.10
2023-04-14T16:42:04.199Z,4.90
2023-04-14T16:44:30.694Z,2.83
2023-04-14T16:46:57.395Z,5.97
2023-04-14T16:49:23.962Z,3.75
2023-04-14T16:51:50.634Z,3.25
2023-04-14T16:54:17.272Z,4.38
2023-04-14T16:56:43.800Z,5.43
2023-04-14T16:59:10.384Z,4.22
2023-04-14T17:01:37.087Z,4.50
2023-04-14T17:04:05.387Z,2.30
2023-04-14T17:06:32.265Z,5.85
2023-04-14T17:09:00.721Z,2.75
2023-04-14T17:11:27.320Z,4.28
2023-04-14T17:13:54.087Z,2.25
2023-04-14T17:16:20.855Z,5.68
2023-04-14T17:18:48.247Z,5.22
2023-04-14T17:21:14.779Z,3.30
2023-04-14T17:23:41.296Z,4.43
2023-04-14T17:26:07.977Z,4.65
2023-04-14T17:28:35.746Z,2.47
2023-04-14T17:31:04.034Z,1.88
2023-04-14T17:33:31.696Z,3.47
2023-04-14T17:35:58.292Z,4.07
2023-04-14T17:38:26.224Z,3.67
2023-04-14T17:40:53.409Z,3.22
2023-04-14T17:43:20.009Z,3.88
2023-04-14T17:45:50.525Z,3.35
2023-04-14T17:48:18.040Z,5.32
2023-04-14T17:50:44.711Z,2.50
2023-04-14T17:53:12.545Z,2.95
2023-04-14T17:55:39.294Z,3.50
2023-04-14T17:58:06.232Z,3.25
2023-04-14T18:00:32.786Z,4.15
2023-04-14T18:02:59.503Z,5.43
2023-04-14T18:05:26.228Z,6.38
2023-04-14T18:07:54.270Z,3.72
2023-04-14T18:10:21.301Z,3.40
2023-04-14T18:12:47.835Z,2.50
2023-04-14T18:15:15.611Z,2.95
2023-04-14T18:17:43.330Z,2.47
2023-04-14T18:20:12.515Z,3.20
2023-04-14T18:22:39.385Z,3.95
2023-04-14T18:25:06.835Z,4.95
2023-04-14T18:30:20.151Z,4.28
2023-04-14T18:32:46.698Z,3.00
2023-04-14T18:35:15.042Z,4.65
2023-04-14T18:37:43.298Z,7.65
2023-04-14T18:40:10.550Z,5.47
2023-04-14T18:42:37.430Z,6.80
2023-04-14T18:45:04.467Z,2.97
2023-04-14T18:47:31.129Z,2.95
2023-04-14T18:50:09.377Z,2.78
2023-04-14T18:52:36.221Z,1.50
2023-04-14T18:55:03.468Z,2.13
2023-04-14T19:00:13.419Z,6.88
2023-04-14T19:02:43.665Z,3.30
2023-04-14T19:05:11.973Z,3.75
2023-04-14T19:07:38.501Z,4.50
2023-04-14T19:10:08.858Z,4.30
2023-04-14T19:12:40.567Z,3.08
2023-04-14T19:15:16.462Z,1.88
2023-04-14T19:17:43.493Z,2.53
2023-04-14T19:20:12.940Z,1.35
2023-04-14T19:22:39.657Z,1.85
2023-04-14T19:25:07.381Z,1.58
2023-04-14T19:27:36.185Z,1.85
2023-04-14T19:30:03.779Z,3.53
2023-04-14T19:35:11.916Z,2.03
2023-04-14T19:37:38.702Z,5.45
2023-04-14T19:40:06.465Z,3.22
2023-04-14T19:42:33.393Z,4.88
2023-04-14T19:45:07.971Z,4.28
2023-04-14T19:47:34.947Z,5.85
2023-04-14T19:50:02.539Z,5.85
2023-04-14T19:52:29.202Z,4.70
2023-04-14T19:54:56.934Z,3.15
2023-04-14T19:57:23.965Z,3.58
2023-04-14T19:59:50.501Z,5.15
2023-04-14T20:02:18.017Z,6.65
2023-04-14T20:04:45.107Z,5.10
2023-04-14T20:07:11.706Z,6.15
2023-04-14T20:09:39.844Z,6.22
2023-04-14T20:12:06.434Z,4.00
2023-04-14T20:14:33.035Z,6.75
2023-04-14T20:16:59.881Z,3.53
2023-04-14T20:19:26.602Z,4.47
2023-04-14T20:21:53.305Z,5.05
2023-04-14T20:24:20.089Z,4.97
2023-04-14T20:26:46.893Z,3.90
2023-04-14T20:29:15.954Z,4.50
2023-04-14T20:31:44.265Z,9.98
2023-04-14T20:34:11.588Z,5.93
2023-04-14T20:36:38.417Z,6.22
2023-04-14T20:39:07.474Z,7.90
2023-04-14T20:41:34.768Z,3.67
2023-04-14T20:44:04.750Z,4.90
2023-04-14T20:46:42.645Z,2.00
2023-04-14T20:49:15.513Z,2.35
2023-04-14T20:51:42.043Z,3.13
2023-04-14T20:54:08.697Z,3.55
2023-04-14T20:56:35.188Z,3.92
2023-04-14T20:59:01.969Z,1.75
2023-04-14T21:01:29.284Z,2.72
2023-04-14T21:03:59.826Z,2.20
2023-04-14T21:06:26.577Z,3.28
2023-04-14T21:08:53.138Z,2.20
2023-04-14T21:11:20.169Z,2.30
2023-04-14T21:15:29.719Z,2.78
2023-04-14T21:16:33.922Z,4.28
2023-04-14T21:19:01.548Z,2.22
2023-04-14T21:21:28.540Z,2.63
2023-04-14T21:23:55.326Z,2.78
2023-04-14T21:26:23.890Z,2.40
2023-04-14T21:28:50.839Z,3.53
2023-04-14T21:31:17.510Z,3.00
2023-04-14T21:33:51.522Z,3.55
2023-04-14T21:38:46.755Z,3.15
2023-04-14T21:41:13.392Z,3.08
2023-04-14T21:43:40.000Z,3.25
2023-04-14T21:46:06.685Z,2.53
2023-04-14T21:48:33.439Z,3.85
2023-04-14T21:51:00.197Z,4.10
2023-04-14T21:53:27.268Z,4.00
2023-04-14T21:56:09.094Z,2.83
2023-04-14T21:58:36.765Z,4.60
2023-04-14T22:01:03.459Z,5.22
2023-04-14T22:03:30.939Z,4.30
2023-04-14T22:05:57.615Z,5.22
2023-04-14T22:08:24.252Z,3.72
2023-04-14T22:10:52.264Z,3.10
2023-04-14T22:13:19.050Z,4.80
2023-04-14T22:15:45.641Z,3.22
2023-04-14T22:18:12.160Z,3.78
2023-04-14T22:20:39.610Z,3.15
2023-04-14T22:23:06.752Z,5.07
2023-04-14T22:25:34.696Z,2.97
2023-04-14T22:28:01.906Z,5.63
2023-04-14T22:30:28.478Z,3.92
2023-04-14T22:32:55.245Z,5.60
2023-04-14T22:35:22.024Z,6.15
2023-04-14T22:37:48.826Z,3.13
2023-04-14T22:40:15.366Z,6.63
2023-04-14T22:42:41.962Z,4.63
2023-04-14T22:45:08.627Z,3.55
2023-04-14T22:47:35.470Z,4.45
2023-04-14T22:50:02.145Z,4.57
2023-04-14T22:52:28.939Z,4.88
2023-04-14T22:54:55.534Z,4.80
2023-04-14T22:57:22.612Z,3.70
2023-04-14T22:59:49.144Z,5.93
2023-04-14T23:02:15.786Z,3.47
2023-04-14T23:04:42.486Z,3.70
2023-04-14T23:07:09.181Z,4.78
2023-04-14T23:09:35.764Z,3.30
2023-04-14T23:12:02.541Z,3.33
2023-04-14T23:14:29.135Z,5.25
2023-04-14T23:16:56.308Z,4.95
2023-04-14T23:19:22.859Z,4.35
2023-04-14T23:21:51.088Z,3.83
2023-04-14T23:24:18.089Z,4.25
2023-04-14T23:26:46.007Z,3.05
2023-04-14T23:29:12.533Z,2.42
2023-04-14T23:31:39.191Z,3.67
2023-04-14T23:34:09.210Z,2.40
2023-04-14T23:36:37.089Z,4.97
2023-04-14T23:39:03.970Z,3.78
2023-04-14T23:41:30.885Z,4.65
2023-04-14T23:43:57.714Z,3.40
2023-04-14T23:46:24.382Z,3.30
2023-04-14T23:48:51.563Z,3.17
2023-04-14T23:51:21.303Z,3.60
2023-04-14T23:53:51.684Z,2.78
2023-04-14T23:56:18.688Z,2.83
2023-04-14T23:58:45.423Z,5.10
